createdAt,value
2023-03-25T03:00:59.022Z,66.12
2023-03-25T03:03:28.558Z,65.87
2023-03-25T03:06:03.849Z,66.19
2023-03-25T03:08:57.688Z,66.02
2023-03-25T03:11:34.241Z,65.95
2023-03-25T03:14:25.512Z,66.04
2023-03-25T03:17:03.972Z,66.00
2023-03-25T03:19:38.573Z,65.96
2023-03-25T03:22:15.120Z,65.96
2023-03-25T03:24:53.983Z,66.15
2023-03-25T03:27:24.592Z,66.12
2023-03-25T03:29:57.053Z,66.29
2023-03-25T03:32:33.160Z,66.20
2023-03-25T03:35:05.875Z,66.06
2023-03-25T03:37:37.944Z,66.31
2023-03-25T03:40:09.012Z,66.74
2023-03-25T03:42:56.725Z,66.07
2023-03-25T03:45:39.934Z,66.33
2023-03-25T03:48:16.563Z,66.48
2023-03-25T03:50:53.087Z,66.34
2023-03-25T03:53:22.074Z,66.29
2023-03-25T03:55:53.984Z,66.20
2023-03-25T03:58:28.958Z,66.45
2023-03-25T04:01:00.742Z,66.78
2023-03-25T04:03:40.737Z,66.39
2023-03-25T04:06:22.795Z,66.58
2023-03-25T04:08:52.250Z,66.45
2023-03-25T04:11:24.006Z,66.43
2023-03-25T04:13:54.594Z,66.65
2023-03-25T04:16:25.383Z,66.37
2023-03-25T04:18:55.580Z,66.27
2023-03-25T04:21:25.818Z,66.59
2023-03-25T04:23:54.717Z,66.49
2023-03-25T04:26:23.836Z,66.55
2023-03-25T04:28:52.713Z,66.61
2023-03-25T04:31:22.550Z,66.67
2023-03-25T04:33:51.502Z,66.66
2023-03-25T04:36:20.898Z,66.65
2023-03-25T04:38:49.999Z,66.52
2023-03-25T04:41:18.843Z,66.64
2023-03-25T04:43:47.965Z,66.65
2023-03-25T04:46:18.253Z,66.68
2023-03-25T04:48:48.019Z,67.00
2023-03-25T04:51:16.303Z,67.01
2023-03-25T04:53:45.055Z,67.16
2023-03-25T04:56:16.628Z,66.99
2023-03-25T04:58:48.084Z,66.95
2023-03-25T05:01:21.448Z,66.82
2023-03-25T05:03:50.673Z,66.94
2023-03-25T05:06:19.841Z,66.97
2023-03-25T05:08:48.102Z,67.06
2023-03-25T05:11:16.937Z,67.23
2023-03-25T05:13:45.568Z,67.23
2023-03-25T05:16:14.064Z,67.10
2023-03-25T05:18:43.064Z,67.26
2023-03-25T05:21:13.434Z,67.38
2023-03-25T05:24:08.118Z,67.45
2023-03-25T05:27:10.552Z,67.47
2023-03-25T05:29:40.001Z,67.29
2023-03-25T05:32:08.226Z,67.48
2023-03-25T05:34:36.707Z,67.39
2023-03-25T05:37:06.159Z,67.40
2023-03-25T05:39:35.153Z,67.45
2023-03-25T05:42:04.229Z,67.48
2023-03-25T05:44:32.729Z,67.32
2023-03-25T05:47:01.892Z,67.80
2023-03-25T05:49:30.988Z,67.54
2023-03-25T05:52:00.677Z,67.76
2023-03-25T05:54:30.119Z,67.74
2023-03-25T05:56:58.956Z,67.63
2023-03-25T05:59:27.974Z,67.70
2023-03-25T06:01:57.420Z,67.83
2023-03-25T06:04:26.657Z,67.69
2023-03-25T06:06:55.937Z,67.69
2023-03-25T06:09:24.929Z,67.51
2023-03-25T06:11:54.343Z,67.72
2023-03-25T06:14:26.176Z,67.53
2023-03-25T06:16:57.337Z,67.91
2023-03-25T06:19:27.145Z,67.76
2023-03-25T06:21:56.731Z,67.90
2023-03-25T06:24:25.567Z,67.85
2023-03-25T06:26:54.599Z,67.74
2023-03-25T06:29:23.515Z,67.79
2023-03-25T06:31:53.085Z,67.74
2023-03-25T06:34:23.657Z,67.82
2023-03-25T06:36:54.696Z,67.81
2023-03-25T06:39:23.299Z,67.66
2023-03-25T06:41:52.422Z,67.57
2023-03-25T06:44:31.183Z,67.73
2023-03-25T06:47:19.346Z,67.62
2023-03-25T06:49:51.378Z,67.58
2023-03-25T06:52:20.431Z,67.53
2023-03-25T06:54:49.044Z,67.49
2023-03-25T06:57:17.835Z,67.53
2023-03-25T06:59:47.697Z,67.59
2023-03-25T07:02:16.839Z,67.51
2023-03-25T07:04:45.910Z,67.49
2023-03-25T07:07:14.855Z,67.60
2023-03-25T07:09:43.938Z,67.58
2023-03-25T07:12:12.981Z,67.49
2023-03-25T07:14:42.121Z,67.58
2023-03-25T07:17:10.800Z,67.51
2023-03-25T07:19:39.962Z,67.49
2023-03-25T07:22:08.860Z,67.55
2023-03-25T07:24:37.839Z,67.61
2023-03-25T07:27:06.599Z,67.44
2023-03-25T07:29:36.989Z,67.43
2023-03-25T07:32:06.335Z,67.44
2023-03-25T07:34:36.540Z,67.44
2023-03-25T07:37:05.443Z,67.33
2023-03-25T07:39:34.766Z,67.19
2023-03-25T07:42:03.579Z,67.27
2023-03-25T07:45:01.744Z,67.08
2023-03-25T07:47:31.547Z,67.23
2023-03-25T07:49:59.858Z,66.97
2023-03-25T07:52:28.465Z,67.30
2023-03-25T07:54:57.565Z,67.22
2023-03-25T07:57:26.854Z,67.17
2023-03-25T07:59:55.956Z,67.24
2023-03-25T08:02:25.147Z,67.52
2023-03-25T08:04:55.662Z,67.38
2023-03-25T08:07:24.713Z,67.17
2023-03-25T08:09:53.762Z,67.37
2023-03-25T08:12:22.929Z,67.09
2023-03-25T08:14:51.853Z,67.04
2023-03-25T08:17:20.971Z,66.60
2023-03-25T08:19:52.677Z,66.77
2023-03-25T08:22:21.952Z,66.58
2023-03-25T08:24:50.691Z,66.71
2023-03-25T08:27:20.122Z,66.51
2023-03-25T08:29:56.596Z,66.61
2023-03-25T08:32:26.904Z,66.47
2023-03-25T08:34:56.063Z,66.47
2023-03-25T08:37:26.293Z,66.26
2023-03-25T08:39:56.643Z,66.23
2023-03-25T08:42:25.822Z,66.17
2023-03-25T08:44:54.950Z,66.04
2023-03-25T08:47:24.040Z,65.91
2023-03-25T08:49:53.137Z,65.76
2023-03-25T08:52:23.421Z,65.65
2023-03-25T08:54:52.552Z,65.67
2023-03-25T08:57:21.782Z,65.69
2023-03-25T08:59:50.785Z,65.72
2023-03-25T09:02:19.733Z,65.51
2023-03-25T09:04:49.376Z,65.53
2023-03-25T09:07:20.420Z,65.34
2023-03-25T09:09:49.427Z,65.26
2023-03-25T09:12:18.652Z,65.28
2023-03-25T09:14:47.917Z,65.13
2023-03-25T09:17:16.764Z,65.29
2023-03-25T09:19:45.780Z,65.18
2023-03-25T09:22:15.592Z,65.35
2023-03-25T09:24:44.632Z,65.25
2023-03-25T09:27:13.569Z,65.08
2023-03-25T09:29:42.877Z,65.16
2023-03-25T09:32:11.957Z,64.86
2023-03-25T09:34:40.849Z,65.08
2023-03-25T09:37:09.944Z,64.93
2023-03-25T09:39:38.928Z,64.82
2023-03-25T09:42:30.081Z,64.85
2023-03-25T09:45:12.389Z,64.85
2023-03-25T09:47:53.785Z,64.72
2023-03-25T09:50:23.190Z,64.78
2023-03-25T09:52:51.923Z,64.62
2023-03-25T09:55:25.911Z,64.60
2023-03-25T09:58:15.483Z,64.59
2023-03-25T10:00:45.955Z,64.69
2023-03-25T10:03:18.581Z,64.69
2023-03-25T10:05:47.714Z,64.63
2023-03-25T10:08:26.941Z,64.58
2023-03-25T10:11:14.829Z,64.48
2023-03-25T10:13:58.780Z,64.10
2023-03-25T10:16:27.904Z,64.14
2023-03-25T10:19:16.241Z,64.15
2023-03-25T10:21:50.432Z,64.14
2023-03-25T10:24:24.393Z,64.29
2023-03-25T10:27:05.965Z,64.34
2023-03-25T10:29:42.919Z,64.24
2023-03-25T10:32:19.001Z,64.19
2023-03-25T10:34:50.568Z,64.37
2023-03-25T10:37:40.345Z,64.26
2023-03-25T10:40:27.737Z,64.13
2023-03-25T10:43:06.508Z,63.98
2023-03-25T10:45:39.747Z,63.87
2023-03-25T10:48:21.116Z,63.84
2023-03-25T10:50:51.342Z,63.69
2023-03-25T10:53:27.660Z,63.65
2023-03-25T10:56:17.973Z,63.49
2023-03-25T10:58:49.301Z,63.61
2023-03-25T11:01:33.400Z,63.83
2023-03-25T11:04:04.492Z,64.08
2023-03-25T11:06:46.506Z,64.24
2023-03-25T11:09:32.914Z,64.24
2023-03-25T11:12:02.736Z,64.13
2023-03-25T11:14:31.633Z,63.93
2023-03-25T11:17:03.746Z,63.95
2023-03-25T11:19:39.627Z,63.85
2023-03-25T11:22:13.612Z,63.70
2023-03-25T11:24:48.866Z,63.52
2023-03-25T11:27:20.903Z,63.17
2023-03-25T11:30:10.477Z,63.24
2023-03-25T11:32:40.284Z,63.54
2023-03-25T11:35:19.857Z,63.37
2023-03-25T11:37:54.700Z,63.52
2023-03-25T11:40:27.094Z,63.42
2023-03-25T11:43:00.591Z,63.24
2023-03-25T11:45:39.556Z,63.08
2023-03-25T11:48:19.106Z,62.95
2023-03-25T11:50:56.433Z,62.87
2023-03-25T11:53:29.733Z,62.85
2023-03-25T11:56:05.450Z,62.71
2023-03-25T11:58:36.668Z,62.84
2023-03-25T12:01:07.185Z,62.92
2023-03-25T12:03:36.236Z,62.99
2023-03-25T12:06:07.131Z,63.02
2023-03-25T12:08:49.609Z,62.68
2023-03-25T12:11:22.221Z,62.62
2023-03-25T12:14:20.025Z,62.62
2023-03-25T12:17:04.234Z,62.36
2023-03-25T12:19:39.365Z,62.31
2023-03-25T12:22:24.387Z,62.45
2023-03-25T12:25:12.016Z,62.27
2023-03-25T12:28:00.202Z,62.39
2023-03-25T12:30:32.308Z,62.46
2023-03-25T12:33:01.579Z,62.32
2023-03-25T12:35:32.663Z,62.22
2023-03-25T12:38:07.815Z,62.13
2023-03-25T12:40:56.063Z,62.00
2023-03-25T12:43:25.098Z,62.16
2023-03-25T12:46:14.503Z,62.11
2023-03-25T12:49:02.449Z,61.47
2023-03-25T12:51:35.024Z,61.71
2023-03-25T12:54:10.262Z,62.09
2023-03-25T12:56:49.103Z,62.48
2023-03-25T12:59:22.413Z,62.77
2023-03-25T13:01:51.563Z,63.03
2023-03-25T13:04:26.547Z,63.24
2023-03-25T13:07:04.982Z,62.93
2023-03-25T13:10:00.277Z,63.22
2023-03-25T13:12:32.636Z,62.97
2023-03-25T13:15:19.627Z,63.06
2023-03-25T13:17:58.470Z,63.00
2023-03-25T13:20:30.661Z,63.21
2023-03-25T13:23:04.522Z,63.29
2023-03-25T13:25:44.075Z,63.46
2023-03-25T13:28:17.329Z,63.72
2023-03-25T13:30:48.723Z,63.40
2023-03-25T13:33:20.383Z,63.10
2023-03-25T13:35:52.842Z,62.96
2023-03-25T13:38:26.762Z,62.83
2023-03-25T13:40:59.171Z,62.82
2023-03-25T13:43:43.442Z,62.69
2023-03-25T13:46:18.997Z,62.75
2023-03-25T13:48:51.922Z,62.59
2023-03-25T13:51:21.893Z,62.54
2023-03-25T13:53:52.515Z,62.53
2023-03-25T13:56:21.153Z,62.60
2023-03-25T13:58:50.284Z,62.51
2023-03-25T14:01:39.043Z,62.49
2023-03-25T14:04:11.824Z,62.49
2023-03-25T14:06:50.638Z,62.51
2023-03-25T14:09:23.108Z,62.55
2023-03-25T14:11:51.211Z,62.43
2023-03-25T14:14:22.899Z,62.47
2023-03-25T14:16:54.562Z,62.47
2023-03-25T14:19:28.762Z,62.35
2023-03-25T14:21:58.274Z,62.34
2023-03-25T14:24:32.085Z,62.20
2023-03-25T14:27:01.200Z,62.32
2023-03-25T14:29:33.307Z,62.37
2023-03-25T14:32:17.813Z,62.68
2023-03-25T14:34:50.330Z,62.45
2023-03-25T14:37:22.752Z,62.35
2023-03-25T14:39:52.454Z,62.36
2023-03-25T14:42:29.205Z,62.26
2023-03-25T14:45:17.045Z,62.28
2023-03-25T14:47:55.185Z,62.17
2023-03-25T14:50:24.019Z,62.32
2023-03-25T14:52:55.781Z,62.27
2023-03-25T14:55:36.854Z,62.04
2023-03-25T14:58:24.131Z,62.11
2023-03-25T15:00:59.332Z,62.35
2023-03-25T15:03:36.896Z,62.37
2023-03-25T15:06:07.364Z,62.62
2023-03-25T15:08:39.993Z,62.43
2023-03-25T15:11:15.159Z,62.50
2023-03-25T15:13:48.086Z,62.63
2023-03-25T15:16:27.671Z,62.46
2023-03-25T15:18:56.933Z,62.40
2023-03-25T15:21:26.512Z,62.28
2023-03-25T15:24:07.637Z,62.40
2023-03-25T15:26:40.948Z,62.64
2023-03-25T15:29:28.647Z,62.77
2023-03-25T15:32:23.931Z,62.54
2023-03-25T15:35:11.885Z,62.58
2023-03-25T15:37:59.646Z,62.63
2023-03-25T15:40:34.437Z,62.61
2023-03-25T15:43:36.107Z,62.50
2023-03-25T15:46:17.319Z,62.37
2023-03-25T15:48:56.666Z,62.33
2023-03-25T15:51:32.757Z,62.20
2023-03-25T15:54:02.280Z,62.19
2023-03-25T15:56:34.883Z,62.25
2023-03-25T15:59:06.405Z,62.30
2023-03-25T16:01:38.273Z,62.28
2023-03-25T16:04:19.038Z,62.34
2023-03-25T16:06:51.487Z,62.25
2023-03-25T16:09:30.031Z,62.39
2023-03-25T16:12:02.619Z,62.29
2023-03-25T16:14:32.880Z,62.53
2023-03-25T16:17:03.910Z,62.55
2023-03-25T16:19:53.535Z,62.38
2023-03-25T16:22:26.619Z,62.55
2023-03-25T16:24:57.421Z,62.50
2023-03-25T16:27:27.058Z,62.61
2023-03-25T16:29:56.164Z,62.48
2023-03-25T16:32:27.051Z,62.48
2023-03-25T16:34:56.613Z,62.52
2023-03-25T16:37:26.389Z,62.70
2023-03-25T16:39:56.512Z,62.56
2023-03-25T16:42:27.269Z,62.56
2023-03-25T16:44:56.718Z,62.61
2023-03-25T16:47:26.829Z,62.64
2023-03-25T16:49:56.968Z,62.66
2023-03-25T16:52:28.348Z,62.77
2023-03-25T16:54:57.434Z,62.71
2023-03-25T16:57:28.777Z,62.76
2023-03-25T17:00:03.482Z,62.84
2023-03-25T17:02:42.747Z,62.94
2023-03-25T17:05:17.271Z,62.85
2023-03-25T17:07:50.635Z,62.88
2023-03-25T17:10:22.069Z,62.95
2023-03-25T17:12:56.603Z,63.05
2023-03-25T17:15:26.716Z,63.09
2023-03-25T17:18:02.636Z,63.12
2023-03-25T17:20:35.440Z,63.16
2023-03-25T17:23:09.933Z,63.33
2023-03-25T17:25:51.063Z,63.33
2023-03-25T17:28:20.193Z,63.37
2023-03-25T17:30:49.351Z,63.49
2023-03-25T17:33:21.606Z,63.52
2023-03-25T17:35:55.589Z,63.55
2023-03-25T17:38:27.192Z,63.60
2023-03-25T17:41:04.161Z,63.64
2023-03-25T17:43:35.308Z,63.56
2023-03-25T17:46:06.584Z,63.67
2023-03-25T17:48:37.253Z,63.45
2023-03-25T17:51:06.291Z,63.51
2023-03-25T17:53:34.777Z,63.69
2023-03-25T17:56:04.016Z,63.59
2023-03-25T17:58:32.664Z,63.55
2023-03-25T18:01:01.704Z,63.37
2023-03-25T18:03:31.580Z,63.50
2023-03-25T18:06:01.270Z,63.36
2023-03-25T18:08:29.596Z,63.55
2023-03-25T18:10:59.094Z,63.61
2023-03-25T18:13:28.358Z,63.69
2023-03-25T18:15:56.774Z,63.82
2023-03-25T18:18:26.852Z,63.74
2023-03-25T18:21:04.174Z,63.80
2023-03-25T18:23:32.876Z,63.96
2023-03-25T18:26:01.963Z,63.91
2023-03-25T18:28:31.410Z,63.85
2023-03-25T18:31:00.147Z,63.96
2023-03-25T18:33:29.195Z,64.03
2023-03-25T18:36:00.239Z,63.99
2023-03-25T18:38:28.887Z,63.97
2023-03-25T18:40:57.711Z,64.06
2023-03-25T18:43:26.710Z,64.29
2023-03-25T18:45:55.952Z,64.24
2023-03-25T18:48:24.814Z,64.33
2023-03-25T18:50:54.962Z,64.17
2023-03-25T18:53:25.259Z,64.44
2023-03-25T18:55:55.119Z,64.13
2023-03-25T18:58:25.281Z,64.11
2023-03-25T19:00:54.338Z,64.22
2023-03-25T19:03:39.506Z,64.27
2023-03-25T19:06:10.383Z,64.21
2023-03-25T19:08:39.872Z,64.12
2023-03-25T19:11:20.129Z,64.21
2023-03-25T19:13:52.014Z,64.29
2023-03-25T19:16:22.021Z,64.27
2023-03-25T19:18:51.819Z,64.20
2023-03-25T19:21:20.669Z,64.39
2023-03-25T19:23:49.523Z,64.48
2023-03-25T19:26:18.411Z,64.39
2023-03-25T19:28:49.179Z,64.49
2023-03-25T19:31:19.394Z,64.20
2023-03-25T19:33:48.602Z,64.28
2023-03-25T19:36:19.562Z,64.43
2023-03-25T19:38:48.694Z,64.17
2023-03-25T19:41:17.805Z,64.45
2023-03-25T19:43:46.927Z,64.54
2023-03-25T19:46:16.261Z,64.66
2023-03-25T19:48:45.474Z,64.40
2023-03-25T19:51:14.318Z,64.49
2023-03-25T19:53:42.869Z,64.53
2023-03-25T19:56:14.742Z,64.66
2023-03-25T19:58:44.397Z,64.76
2023-03-25T20:01:13.373Z,64.60
2023-03-25T20:03:42.815Z,64.35
2023-03-25T20:06:11.848Z,64.54
2023-03-25T20:08:40.927Z,64.70
2023-03-25T20:11:10.546Z,64.71
2023-03-25T20:13:39.712Z,64.64
2023-03-25T20:16:09.028Z,64.71
2023-03-25T20:18:38.346Z,64.94
2023-03-25T20:21:08.457Z,65.06
2023-03-25T20:23:36.746Z,64.92
2023-03-25T20:26:05.910Z,64.86
2023-03-25T20:28:34.216Z,64.99
2023-03-25T20:31:15.538Z,65.23
2023-03-25T20:33:44.136Z,65.01
2023-03-25T20:36:12.665Z,65.05
2023-03-25T20:38:50.524Z,65.01
2023-03-25T20:41:25.033Z,65.01
2023-03-25T20:43:53.567Z,64.94
2023-03-25T20:46:25.476Z,65.13
2023-03-25T20:48:54.687Z,64.89
2023-03-25T20:51:24.289Z,64.93
2023-03-25T20:53:53.629Z,65.02
2023-03-25T20:56:22.066Z,65.13
2023-03-25T20:58:50.153Z,65.00
2023-03-25T21:01:18.646Z,65.07
2023-03-25T21:03:52.112Z,64.95
2023-03-25T21:06:24.503Z,65.09
2023-03-25T21:08:54.965Z,65.05
2023-03-25T21:11:24.164Z,65.08
2023-03-25T21:13:52.976Z,64.88
2023-03-25T21:16:21.870Z,65.07
2023-03-25T21:18:50.718Z,65.26
2023-03-25T21:21:19.920Z,65.34
2023-03-25T21:23:49.991Z,65.40
2023-03-25T21:26:18.480Z,65.25
2023-03-25T21:28:49.147Z,65.44
2023-03-25T21:31:22.063Z,65.39
2023-03-25T21:33:52.743Z,65.44
2023-03-25T21:36:22.823Z,65.31
2023-03-25T21:38:55.116Z,65.33
2023-03-25T21:41:27.236Z,65.49
2023-03-25T21:43:56.377Z,65.57
2023-03-25T21:46:28.390Z,65.55
2023-03-25T21:48:59.225Z,65.35
2023-03-25T21:51:31.190Z,65.64
2023-03-25T21:54:00.945Z,65.61
2023-03-25T21:56:31.662Z,65.39
2023-03-25T21:59:03.788Z,65.45
2023-03-25T22:01:32.939Z,65.42
2023-03-25T22:04:02.579Z,65.28
2023-03-25T22:06:35.717Z,65.43
2023-03-25T22:09:08.104Z,65.53
2023-03-25T22:11:37.863Z,65.69
2023-03-25T22:14:07.427Z,65.50
2023-03-25T22:16:36.778Z,65.53
2023-03-25T22:19:05.972Z,65.39
2023-03-25T22:21:37.549Z,65.60
2023-03-25T22:24:07.869Z,65.46
2023-03-25T22:26:43.215Z,65.46
2023-03-25T22:29:14.110Z,65.66
2023-03-25T22:31:43.461Z,65.57
2023-03-25T22:34:15.962Z,65.58
2023-03-25T22:36:50.933Z,65.53
2023-03-25T22:39:21.221Z,65.36
2023-03-25T22:41:50.166Z,65.37
2023-03-25T22:44:19.234Z,65.53
2023-03-25T22:46:49.448Z,65.69
2023-03-25T22:49:18.896Z,65.09
2023-03-25T22:51:48.262Z,65.43
2023-03-25T22:54:17.056Z,65.56
2023-03-25T22:56:45.993Z,65.67
2023-03-25T22:59:15.557Z,65.85
2023-03-25T23:01:45.307Z,65.50
2023-03-25T23:04:13.868Z,65.58
2023-03-25T23:06:42.787Z,65.77
2023-03-25T23:09:13.018Z,65.53
2023-03-25T23:11:41.470Z,65.67
2023-03-25T23:14:13.546Z,65.68
2023-03-25T23:16:42.313Z,66.09
2023-03-25T23:19:11.450Z,65.71
2023-03-25T23:21:40.864Z,65.78
2023-03-25T23:24:09.926Z,66.07
2023-03-25T23:26:40.954Z,66.01
2023-03-25T23:29:12.204Z,65.85
2023-03-25T23:31:42.576Z,65.96
2023-03-25T23:34:16.729Z,66.19
2023-03-25T23:36:47.414Z,65.98
2023-03-25T23:39:17.636Z,65.80
2023-03-25T23:41:46.548Z,65.82
2023-03-25T23:44:16.109Z,65.78
2023-03-25T23:46:45.177Z,66.01
2023-03-25T23:49:13.946Z,65.90
2023-03-25T23:51:42.848Z,66.04
2023-03-25T23:54:13.082Z,65.92
2023-03-25T23:56:42.749Z,65.62
2023-03-25T23:59:13.580Z,65.81
